Yvonne K. — PBLX — position and weather

sailwx.info

Track history (hours):
 
Tides and Currents Weather Stations Pressure Air Temp Water Temp Dewpoint Dewpoint Depression Visibility Wind Speed Wind Dir Waves Ship Positions

Yvonne K.

Last reported at 2014-Aug-23 03:33 UTC. Time now 2014-Aug-23 07:35 UTC.
Position N 40°49' E 002°37'.

Length 90 m; draft 3.4 m.

Type: Cargo ship. MMSI: 244948000.

Date/timePositionNaut miles runAvg speedWind from/ knotsBaromVisibWave heightAir tempDewpointWater temp
2014-Aug-23 03:33N 40°49' E 002°37'9 8.8
2014-Aug-23 02:33N 40°51' E 002°26'9 8.9
2014-Aug-23 01:33N 40°54' E 002°14'8 8.3
2014-Aug-23 00:33N 40°55' E 002°03'8 8.4
2014-Aug-22 23:33N 40°57' E 001°53'221 4.9
2014-Aug-21 02:09N 37°43' W 000°23'7 8.9
2014-Aug-21 01:19N 37°37' W 000°28'7 8.8
2014-Aug-21 00:32N 37°32' W 000°33'9 8.9
2014-Aug-20 23:33N 37°26' W 000°42'11 8.9
2014-Aug-20 22:19N 37°18' W 000°52'7 8.7
2014-Aug-20 21:30N 37°14' W 000°59'10 8.8
2014-Aug-20 20:22N 37°07' W 001°08'7 9.0
2014-Aug-20 19:33N 37°02' W 001°15'206 9.3
2014-Aug-19 21:28N 35°55' W 005°17'2 2.2
2014-Aug-19 20:33N 35°54' W 005°18'0 0.0
2014-Aug-19 19:33N 35°54' W 005°18'0 0.0
2014-Aug-19 18:33N 35°54' W 005°18'1 0.8
2014-Aug-19 17:33N 35°54' W 005°19'1 0.7
2014-Aug-19 16:34N 35°55' W 005°19'122 9.4
2014-Aug-19 03:32N 36°15' W 007°48'9 8.7
2014-Aug-19 02:29N 36°18' W 007°59'11 8.5
2014-Aug-19 01:12N 36°20' W 008°12'19 8.7
2014-Aug-18 23:03N 36°25' W 008°34'6 8.8
2014-Aug-18 22:25N 36°27' W 008°41'10 9.2
2014-Aug-18 21:18N 36°29' W 008°53'7 9.5
2014-Aug-18 20:33N 36°31' W 009°02'9 9.3
2014-Aug-18 19:34N 36°34' W 009°13'34 8.4
2014-Aug-18 15:28N 37°02' W 009°36'  
2014-Aug-13 16:32N 50°36' E 000°18'9 9.2
2014-Aug-13 15:33N 50°38' E 000°31'8 8.4
2014-Aug-13 14:33N 50°43' E 000°43'8 7.6
2014-Aug-13 13:33N 50°47' E 000°53'26 8.3
2014-Aug-13 10:25N 51°03' E 001°25'1112.9
2014-Aug-13 09:33N 51°10' E 001°39'1212.4
2014-Aug-13 08:33N 51°20' E 001°52'1110.6
2014-Aug-13 07:33N 51°28' E 002°02'  
Track history (hours):
 
Tides and Currents Weather Stations Pressure Air Temp Water Temp Dewpoint Dewpoint Depression Visibility Wind Speed Wind Dir Waves Ship Positions

Yvonne K.

Last reported at 2014-Aug-23 03:33 UTC. Time now 2014-Aug-23 07:35 UTC.
Position N 40°49' E 002°37'.

Length 90 m; draft 3.4 m.

Type: Cargo ship. MMSI: 244948000.

Date/timePositionNaut miles runAvg speedWind from/ knotsBaromVisibWave heightAir tempDewpointWater temp
2014-Aug-23 03:33N 40°49' E 002°37'9 8.8
2014-Aug-23 02:33N 40°51' E 002°26'9 8.9
2014-Aug-23 01:33N 40°54' E 002°14'8 8.3
2014-Aug-23 00:33N 40°55' E 002°03'8 8.4
2014-Aug-22 23:33N 40°57' E 001°53'221 4.9
2014-Aug-21 02:09N 37°43' W 000°23'7 8.9
2014-Aug-21 01:19N 37°37' W 000°28'7 8.8
2014-Aug-21 00:32N 37°32' W 000°33'9 8.9
2014-Aug-20 23:33N 37°26' W 000°42'11 8.9
2014-Aug-20 22:19N 37°18' W 000°52'7 8.7
2014-Aug-20 21:30N 37°14' W 000°59'10 8.8
2014-Aug-20 20:22N 37°07' W 001°08'7 9.0
2014-Aug-20 19:33N 37°02' W 001°15'206 9.3
2014-Aug-19 21:28N 35°55' W 005°17'2 2.2
2014-Aug-19 20:33N 35°54' W 005°18'0 0.0
2014-Aug-19 19:33N 35°54' W 005°18'0 0.0
2014-Aug-19 18:33N 35°54' W 005°18'1 0.8
2014-Aug-19 17:33N 35°54' W 005°19'1 0.7
2014-Aug-19 16:34N 35°55' W 005°19'122 9.4
2014-Aug-19 03:32N 36°15' W 007°48'9 8.7
2014-Aug-19 02:29N 36°18' W 007°59'11 8.5
2014-Aug-19 01:12N 36°20' W 008°12'19 8.7
2014-Aug-18 23:03N 36°25' W 008°34'6 8.8
2014-Aug-18 22:25N 36°27' W 008°41'10 9.2
2014-Aug-18 21:18N 36°29' W 008°53'7 9.5
2014-Aug-18 20:33N 36°31' W 009°02'9 9.3
2014-Aug-18 19:34N 36°34' W 009°13'34 8.4
2014-Aug-18 15:28N 37°02' W 009°36'  
2014-Aug-13 16:32N 50°36' E 000°18'9 9.2
2014-Aug-13 15:33N 50°38' E 000°31'8 8.4
2014-Aug-13 14:33N 50°43' E 000°43'8 7.6
2014-Aug-13 13:33N 50°47' E 000°53'26 8.3
2014-Aug-13 10:25N 51°03' E 001°25'1112.9
2014-Aug-13 09:33N 51°10' E 001°39'1212.4
2014-Aug-13 08:33N 51°20' E 001°52'1110.6
2014-Aug-13 07:33N 51°28' E 002°02'  

Dump ship's entire track history